Time;durP1;ratioP1;P1;durP2;ratioP2;P2;SDS_P1;SDS_P2;PMS_P1;PMS_P2;Temp;Humidity;BMP_temperature;BMP_pressure;BME280_temperature;BME280_humidity;BME280_pressure;Samples;Min_cycle;Max_cycle;Signal;HPM_P1;HPM_P2
2022/06/12 00:01:03;;;;;;;;;2.25;1.75;;;;;19.04;49.66;102133.84;5034252;28;45468;-85
2022/06/12 00:03:32;;;;;;;;;1.00;1.00;;;;;18.99;48.96;102127.06;5031419;28;45503;-85
2022/06/12 00:05:59;;;;;;;;;4.25;1.00;;;;;18.95;48.17;102132.44;5031193;28;47219;-85
2022/06/12 00:08:26;;;;;;;;;1.00;1.00;;;;;18.94;48.71;102127.22;5029564;28;45788;-85
2022/06/12 00:10:53;;;;;;;;;1.00;1.00;;;;;18.95;48.51;102128.97;5034275;28;47078;-84
2022/06/12 00:13:42;;;;;;;;;1.25;1.00;;;;;18.92;49.23;102124.66;5032828;28;45384;-85
2022/06/12 00:16:10;;;;;;;;;2.75;2.00;;;;;18.87;49.37;102126.66;5033724;28;45535;-85
2022/06/12 00:18:36;;;;;;;;;7.75;5.75;;;;;18.83;49.10;102130.31;5031321;28;45813;-85
2022/06/12 00:21:11;;;;;;;;;8.25;6.00;;;;;18.79;48.92;102130.47;5046811;28;45367;-85
2022/06/12 00:23:44;;;;;;;;;10.50;7.00;;;;;18.74;49.47;102126.25;5029584;28;45397;-85
2022/06/12 00:26:11;;;;;;;;;15.75;8.75;;;;;18.76;49.03;102134.13;5033505;28;45413;-85
2022/06/12 00:28:36;;;;;;;;;16.00;11.50;;;;;18.75;50.19;102130.59;5033972;28;45614;-85
2022/06/12 00:31:02;;;;;;;;;13.75;11.50;;;;;18.71;50.30;102128.16;5033762;28;45467;-85
2022/06/12 00:33:27;;;;;;;;;20.50;14.75;;;;;18.64;49.89;102124.91;5035499;28;46939;-85
2022/06/12 00:35:53;;;;;;;;;12.75;10.00;;;;;18.65;50.97;102131.91;5031603;28;45376;-85
2022/06/12 00:38:18;;;;;;;;;11.00;10.00;;;;;18.62;50.99;102134.66;5032208;28;45521;-85
2022/06/12 00:40:44;;;;;;;;;14.00;11.00;;;;;18.61;51.15;102140.88;5033375;28;58302;-85
2022/06/12 00:43:13;;;;;;;;;13.00;10.00;;;;;18.58;51.33;102139.19;5031837;28;60747;-85
2022/06/12 00:45:46;;;;;;;;;10.50;7.25;;;;;18.48;51.17;102143.16;5030066;28;45526;-85
2022/06/12 00:48:17;;;;;;;;;6.50;4.00;;;;;18.45;51.19;102145.88;5033988;28;45380;-85
2022/06/12 00:50:47;;;;;;;;;5.00;3.50;;;;;18.45;51.42;102139.78;5031600;28;45556;-85
2022/06/12 00:53:17;;;;;;;;;10.00;4.25;;;;;18.43;51.04;102134.56;5036605;28;45509;-84
2022/06/12 00:55:53;;;;;;;;;6.50;4.00;;;;;18.40;52.07;102133.81;5030433;28;45652;-84
2022/06/12 00:58:22;;;;;;;;;3.75;2.50;;;;;18.36;51.84;102128.66;5051593;28;45509;-85
2022/06/12 01:00:48;;;;;;;;;3.50;3.50;;;;;18.35;52.32;102129.59;5030795;28;45416;-85
2022/06/12 01:03:15;;;;;;;;;3.25;2.50;;;;;18.34;52.46;102134.91;5019357;28;45412;-85
2022/06/12 01:06:40;;;;;;;;;3.00;3.00;;;;;18.30;51.97;102133.31;5033647;28;46402;-84
2022/06/12 01:08:36;;;;;;;;;4.25;3.00;;;;;18.26;51.99;102135.22;5033130;28;45715;-85
2022/06/12 01:11:05;;;;;;;;;3.00;1.75;;;;;18.24;51.64;102139.69;5033340;28;45366;-84
2022/06/12 01:13:36;;;;;;;;;3.00;2.25;;;;;18.23;51.79;102137.13;5032975;28;45450;-84
2022/06/12 01:16:08;;;;;;;;;3.75;1.00;;;;;18.22;52.23;102144.16;5033148;28;45539;-84
2022/06/12 01:18:36;;;;;;;;;1.00;1.00;;;;;18.16;52.03;102152.28;5037439;28;45604;-84
2022/06/12 01:21:01;;;;;;;;;2.75;1.75;;;;;18.12;52.14;102148.06;5033348;28;45400;-85
2022/06/12 01:23:45;;;;;;;;;2.00;1.00;;;;;18.08;51.85;102142.06;5030962;28;45530;-86
2022/06/12 01:26:49;;;;;;;;;2.00;2.00;;;;;18.03;51.66;102149.25;5036428;28;46567;-85
2022/06/12 01:29:28;;;;;;;;;1.50;1.50;;;;;17.98;51.91;102148.59;5032129;28;45723;-85
2022/06/12 01:32:12;;;;;;;;;4.00;2.00;;;;;17.93;51.65;102147.91;5032365;28;45416;-85
2022/06/12 01:34:48;;;;;;;;;3.50;2.00;;;;;17.89;52.10;102144.53;5036483;28;45498;-85
2022/06/12 01:37:17;;;;;;;;;2.25;2.25;;;;;17.88;52.41;102144.56;5020976;28;45385;-85
2022/06/12 01:40:01;;;;;;;;;2.25;1.00;;;;;17.85;51.95;102148.19;5038289;28;45664;-85
2022/06/12 01:42:35;;;;;;;;;4.00;1.00;;;;;17.80;52.83;102145.69;5032564;28;45409;-85
2022/06/12 01:45:27;;;;;;;;;4.75;1.25;;;;;17.76;52.92;102153.78;5036072;28;45412;-85
2022/06/12 01:48:01;;;;;;;;;4.00;2.00;;;;;17.74;52.72;102150.34;5035960;28;47455;-85
2022/06/12 01:50:44;;;;;;;;;2.00;2.00;;;;;17.65;52.86;102153.31;5035657;28;45436;-85
2022/06/12 01:53:39;;;;;;;;;1.50;1.00;;;;;17.58;52.66;102156.13;5032089;28;45527;-85
2022/06/12 01:56:30;;;;;;;;;1.00;1.00;;;;;17.54;53.22;102165.06;5033957;28;45293;-85
2022/06/12 01:59:05;;;;;;;;;6.25;2.00;;;;;17.47;53.37;102154.81;5034396;28;47374;-85
2022/06/12 02:01:51;;;;;;;;;3.75;2.00;;;;;17.46;53.55;102161.84;5036311;28;45440;-85
2022/06/12 02:04:24;;;;;;;;;2.50;2.25;;;;;17.42;53.23;102165.47;5052871;28;45333;-85
2022/06/12 02:07:07;;;;;;;;;1.25;1.00;;;;;17.44;53.92;102162.81;5016643;28;45471;-85
2022/06/12 02:09:42;;;;;;;;;4.25;2.00;;;;;17.39;53.25;102161.19;5037930;28;45504;-85
2022/06/12 02:15:26;;;;;;;;;1.25;1.25;;;;;17.37;53.43;102170.91;5027699;28;45560;-84
2022/06/12 02:17:59;;;;;;;;;3.00;1.75;;;;;17.33;53.42;102169.31;5031496;28;45490;-84
2022/06/12 02:20:29;;;;;;;;;2.00;2.00;;;;;17.35;53.73;102166.63;5031470;28;45366;-84
2022/06/12 02:22:56;;;;;;;;;2.25;1.00;;;;;17.32;53.76;102166.72;5032876;28;45374;-85
2022/06/12 02:25:28;;;;;;;;;3.25;1.75;;;;;17.29;53.23;102159.81;5033737;28;45654;-85
2022/06/12 02:27:57;;;;;;;;;2.00;1.75;;;;;17.29;53.79;102164.19;5035158;28;45402;-84
2022/06/12 02:30:27;;;;;;;;;1.75;1.00;;;;;17.28;54.36;102167.75;5036249;28;45407;-85
2022/06/12 02:32:57;;;;;;;;;3.50;2.00;;;;;17.22;53.71;102167.06;5038381;28;49102;-85
2022/06/12 02:35:29;;;;;;;;;1.50;1.00;;;;;17.25;53.92;102170.47;5032358;28;45562;-84
2022/06/12 02:38:09;;;;;;;;;2.00;1.00;;;;;17.20;53.69;102165.41;5018788;28;45306;-84
2022/06/12 02:40:45;;;;;;;;;3.00;1.50;;;;;17.18;53.61;102167.22;5035236;28;47725;-84
2022/06/12 02:43:16;;;;;;;;;2.75;2.00;;;;;17.18;54.53;102160.19;5034530;28;45356;-84
2022/06/12 02:46:08;;;;;;;;;4.00;1.00;;;;;17.11;54.41;102153.41;5036555;28;45359;-85
2022/06/12 02:48:33;;;;;;;;;2.75;2.75;;;;;17.09;53.69;102160.50;5036196;28;45583;-85
2022/06/12 02:51:10;;;;;;;;;5.50;1.50;;;;;17.07;54.73;102164.06;5034837;28;48363;-85
2022/06/12 02:53:59;;;;;;;;;1.50;1.00;;;;;17.04;55.15;102159.78;5031070;28;45596;-85
2022/06/12 02:56:40;;;;;;;;;4.50;1.00;;;;;16.94;54.58;102159.22;5035049;28;45419;-84
2022/06/12 02:59:13;;;;;;;;;6.50;1.00;;;;;16.90;54.82;102162.00;5035195;28;45468;-84
2022/06/12 03:01:48;;;;;;;;;3.00;2.00;;;;;16.88;54.94;102161.19;5031724;28;46913;-85
2022/06/12 03:04:43;;;;;;;;;1.50;1.50;;;;;16.88;55.06;102166.44;5018611;28;45590;-84
2022/06/12 03:07:08;;;;;;;;;3.75;2.00;;;;;16.85;55.42;102159.53;5048702;28;45400;-85
2022/06/12 03:09:34;;;;;;;;;2.50;2.25;;;;;16.80;54.38;102161.41;5035949;28;45513;-84
2022/06/12 03:11:59;;;;;;;;;1.00;1.00;;;;;16.71;54.89;102157.28;5033995;28;68996;-86
2022/06/12 03:14:25;;;;;;;;;2.00;2.00;;;;;16.67;54.99;102163.56;5033996;28;62706;-84
2022/06/12 03:16:51;;;;;;;;;1.00;1.00;;;;;16.68;55.19;102164.41;5030679;28;45276;-85
2022/06/12 03:19:24;;;;;;;;;3.00;1.00;;;;;16.63;54.91;102157.53;5034921;28;45333;-86
2022/06/12 03:22:05;;;;;;;;;1.00;1.00;;;;;16.61;55.29;102163.78;5015581;28;48218;-86
2022/06/12 03:24:59;;;;;;;;;3.00;2.00;;;;;16.59;54.97;102162.97;5036614;28;45720;-86
2022/06/12 03:27:56;;;;;;;;;1.50;1.50;;;;;16.55;56.06;102167.47;5036957;28;45504;-86
2022/06/12 03:30:48;;;;;;;;;1.50;1.00;;;;;16.48;55.68;102165.06;5029481;28;45463;-87
2022/06/12 03:33:29;;;;;;;;;1.00;1.00;;;;;16.41;55.87;102159.97;5032810;28;46346;-86
2022/06/12 03:36:03;;;;;;;;;4.00;2.00;;;;;16.42;56.19;102152.97;5030261;28;45735;-85
2022/06/12 03:39:08;;;;;;;;;1.75;1.75;;;;;16.40;56.13;102162.66;5033019;28;45441;-86
2022/06/12 03:41:45;;;;;;;;;5.50;3.25;;;;;16.38;56.73;102161.84;5030291;28;45555;-85
2022/06/12 03:44:20;;;;;;;;;3.00;3.00;;;;;16.36;56.16;102161.03;5034003;28;46365;-85
2022/06/12 03:46:56;;;;;;;;;3.75;1.00;;;;;16.37;55.99;102157.50;5034404;28;45731;-85
2022/06/12 03:49:40;;;;;;;;;2.75;1.00;;;;;16.39;55.73;102169.69;5052249;28;45474;-85
2022/06/12 03:52:30;;;;;;;;;2.75;2.00;;;;;16.38;56.68;102154.84;5034297;28;45303;-85
2022/06/12 03:55:07;;;;;;;;;4.75;2.00;;;;;16.36;56.57;102156.66;5030565;28;48063;-85
2022/06/12 03:57:52;;;;;;;;;2.00;2.00;;;;;16.34;56.93;102160.22;5034955;28;45575;-85
2022/06/12 04:00:20;;;;;;;;;3.00;1.00;;;;;16.37;56.32;102158.38;5030575;28;45452;-85
2022/06/12 04:02:48;;;;;;;;;2.00;1.50;;;;;16.42;56.03;102161.72;5034068;28;45549;-85
2022/06/12 04:05:21;;;;;;;;;1.00;1.00;;;;;16.45;56.09;102158.13;5032314;28;46618;-85
2022/06/12 04:07:51;;;;;;;;;4.00;2.00;;;;;16.45;56.92;102152.88;5032932;28;45717;-85
2022/06/12 04:10:19;;;;;;;;;1.50;1.00;;;;;16.42;55.96;102137.22;5032984;28;45311;-86
2022/06/12 04:12:45;;;;;;;;;4.75;1.00;;;;;16.42;56.40;102148.56;5031408;28;45309;-84
2022/06/12 04:15:18;;;;;;;;;1.75;1.75;;;;;16.44;55.83;102151.16;5061747;28;46283;-85
2022/06/12 04:17:44;;;;;;;;;4.50;1.00;;;;;16.38;56.40;102146.97;5029665;28;45733;-84
2022/06/12 04:20:16;;;;;;;;;5.25;1.25;;;;;16.34;56.78;102154.97;5031959;28;64125;-85
2022/06/12 04:22:46;;;;;;;;;2.25;2.00;;;;;16.32;56.47;102147.13;5033005;28;45474;-85
2022/06/12 04:25:23;;;;;;;;;3.00;2.00;;;;;16.30;57.05;102154.19;5033754;28;48805;-86
2022/06/12 04:27:48;;;;;;;;;5.50;2.00;;;;;16.28;57.14;102147.28;5031645;28;45865;-86
2022/06/12 04:30:22;;;;;;;;;6.50;1.00;;;;;16.29;57.22;102160.38;5032846;28;50649;-86
2022/06/12 04:32:48;;;;;;;;;2.50;1.25;;;;;16.30;57.19;102153.34;5032205;28;45468;-85
2022/06/12 04:35:15;;;;;;;;;3.50;2.00;;;;;16.31;56.76;102161.19;5036494;28;46535;-85
2022/06/12 04:37:42;;;;;;;;;2.50;1.50;;;;;16.27;57.13;102162.19;5033767;28;45696;-85
2022/06/12 04:40:17;;;;;;;;;4.00;2.00;;;;;16.27;57.38;102151.69;5033605;28;45367;-85
2022/06/12 04:42:43;;;;;;;;;2.00;2.00;;;;;16.28;57.20;102155.16;5035390;28;45317;-85
2022/06/12 04:45:08;;;;;;;;;3.00;2.00;;;;;16.27;56.46;102164.81;5032696;28;63141;-85
2022/06/12 04:47:34;;;;;;;;;4.00;2.00;;;;;16.28;57.39;102158.66;5028909;28;54169;-85
2022/06/12 04:50:00;;;;;;;;;2.00;2.00;;;;;16.32;57.16;102165.53;5033570;28;45503;-86
2022/06/12 04:52:26;;;;;;;;;1.00;1.00;;;;;16.34;57.28;102163.69;5032900;28;54602;-85
2022/06/12 04:54:51;;;;;;;;;3.75;2.00;;;;;16.36;57.42;102161.91;5035447;28;46466;-85
2022/06/12 04:57:18;;;;;;;;;2.00;2.00;;;;;16.37;57.19;102157.50;5037430;28;45393;-85
2022/06/12 04:59:45;;;;;;;;;2.00;2.00;;;;;16.44;57.09;102164.31;5036925;28;45502;-85
2022/06/12 05:02:11;;;;;;;;;3.50;1.75;;;;;16.44;56.74;102161.69;5016857;28;47169;-85
2022/06/12 05:04:36;;;;;;;;;1.00;1.00;;;;;16.44;57.47;102159.91;5022626;28;45477;-85
2022/06/12 05:07:03;;;;;;;;;2.50;1.00;;;;;16.42;57.54;102156.47;5036693;28;45503;-86
2022/06/12 05:09:32;;;;;;;;;3.75;2.25;;;;;16.37;57.14;102154.88;5037730;28;45378;-86
2022/06/12 05:11:58;;;;;;;;;3.50;2.75;;;;;16.42;57.65;102164.34;5026988;28;45430;-85
2022/06/12 05:14:23;;;;;;;;;4.00;2.00;;;;;16.42;57.08;102153.84;5030329;28;47468;-85
2022/06/12 05:16:52;;;;;;;;;2.75;2.00;;;;;16.46;57.50;102149.34;5035820;28;66123;-84
2022/06/12 05:19:20;;;;;;;;;4.00;2.00;;;;;16.45;57.62;102143.25;5034955;28;45486;-85
2022/06/12 05:21:47;;;;;;;;;4.00;3.00;;;;;16.44;57.47;102148.53;5038535;28;45365;-84
2022/06/12 05:24:13;;;;;;;;;4.00;2.00;;;;;16.37;57.34;102139.97;5035961;28;46287;-85
2022/06/12 05:26:39;;;;;;;;;3.00;1.50;;;;;16.43;57.69;102152.91;5031851;28;45682;-85
2022/06/12 05:29:08;;;;;;;;;5.00;2.00;;;;;16.50;57.81;102152.75;5036813;28;45483;-84
2022/06/12 05:31:33;;;;;;;;;2.50;2.50;;;;;16.46;57.55;102149.34;5035439;28;45416;-85
2022/06/12 05:33:59;;;;;;;;;3.00;1.00;;;;;16.43;58.00;102150.28;5034847;28;57333;-85
2022/06/12 05:36:25;;;;;;;;;8.25;3.00;;;;;16.42;57.88;102148.56;5033115;28;66955;-85
2022/06/12 05:38:50;;;;;;;;;4.00;2.50;;;;;16.47;58.04;102132.66;5033934;28;45345;-85
2022/06/12 05:41:16;;;;;;;;;3.00;1.75;;;;;16.56;57.36;102144.66;5034515;28;45373;-84
2022/06/12 05:43:42;;;;;;;;;3.75;3.00;;;;;16.64;57.78;102143.50;5035971;28;46113;-84
2022/06/12 05:46:09;;;;;;;;;3.00;2.00;;;;;16.69;57.25;102142.50;5035068;28;45357;-85
2022/06/12 05:48:34;;;;;;;;;4.75;3.00;;;;;16.72;57.42;102138.00;5033834;28;45388;-84
2022/06/12 05:51:01;;;;;;;;;2.50;2.00;;;;;16.74;57.41;102151.09;5034941;28;45438;-85
2022/06/12 05:53:28;;;;;;;;;3.50;2.00;;;;;16.77;56.93;102154.50;5035803;28;45352;-85
2022/06/12 05:55:54;;;;;;;;;3.00;2.00;;;;;16.83;57.32;102156.09;5035297;28;45784;-84
2022/06/12 05:58:21;;;;;;;;;7.75;3.25;;;;;16.86;56.96;102155.13;5034957;28;45340;-84
2022/06/12 06:00:48;;;;;;;;;1.75;1.25;;;;;16.87;57.05;102155.06;5036461;28;45539;-85
2022/06/12 06:03:13;;;;;;;;;5.25;2.50;;;;;16.85;56.91;102158.69;5034527;28;45492;-84
2022/06/12 06:05:40;;;;;;;;;5.50;2.00;;;;;16.83;57.04;102162.19;5035857;28;45429;-85
2022/06/12 06:08:08;;;;;;;;;2.75;2.00;;;;;16.78;56.91;102168.50;5031848;28;45508;-85
2022/06/12 06:10:34;;;;;;;;;3.00;1.75;;;;;16.82;56.96;102170.09;5035940;28;45540;-85
2022/06/12 06:13:00;;;;;;;;;2.50;2.50;;;;;16.88;56.82;102172.56;5033512;28;45709;-85
2022/06/12 06:15:25;;;;;;;;;2.00;2.00;;;;;16.92;56.88;102174.22;5037835;28;45751;-85
2022/06/12 06:17:52;;;;;;;;;2.00;2.00;;;;;16.98;56.39;102163.47;5035579;28;45352;-85
2022/06/12 06:20:23;;;;;;;;;4.00;2.00;;;;;17.07;55.81;102164.06;5031539;28;45444;-84
2022/06/12 06:22:49;;;;;;;;;3.00;3.00;;;;;17.08;55.75;102171.06;5035730;28;47144;-84
2022/06/12 06:25:15;;;;;;;;;5.25;1.75;;;;;17.07;55.77;102170.22;5033206;28;45638;-83
2022/06/12 06:27:41;;;;;;;;;3.00;2.25;;;;;17.07;55.92;102175.47;5037969;28;45322;-83
2022/06/12 06:30:07;;;;;;;;;3.50;2.00;;;;;17.06;55.62;102172.88;5035572;28;45623;-82
2022/06/12 06:32:32;;;;;;;;;3.00;2.25;;;;;17.04;55.80;102172.94;5030982;28;45593;-83
2022/06/12 06:34:59;;;;;;;;;4.25;1.50;;;;;17.09;55.71;102185.94;5034694;28;67786;-83
2022/06/12 06:37:24;;;;;;;;;3.00;3.00;;;;;17.16;55.42;102185.69;5035653;28;45439;-83
2022/06/12 06:39:50;;;;;;;;;3.75;2.75;;;;;17.24;55.70;102195.09;5036323;28;45543;-84
2022/06/12 06:42:15;;;;;;;;;4.50;2.25;;;;;17.25;55.39;102186.28;5015230;28;64208;-84
2022/06/12 06:47:24;;;;;;;;;1.75;1.75;;;;;17.43;55.60;102180.38;5035296;28;45362;-84
2022/06/12 06:49:50;;;;;;;;;7.00;1.75;;;;;17.49;54.54;102177.53;5030226;28;66995;-85
2022/06/12 06:52:15;;;;;;;;;6.00;3.25;;;;;17.58;54.77;102182.47;5017087;28;58394;-84
2022/06/12 06:54:41;;;;;;;;;2.75;1.00;;;;;17.63;54.14;102181.47;5032418;28;45558;-84
2022/06/12 06:57:07;;;;;;;;;5.50;2.25;;;;;17.66;54.42;102183.97;5033952;28;64322;-84
2022/06/12 06:59:33;;;;;;;;;3.00;2.00;;;;;17.67;54.14;102188.34;5033796;28;45470;-85
2022/06/12 07:01:59;;;;;;;;;5.00;2.00;;;;;17.68;53.80;102183.03;5030735;28;45456;-87
2022/06/12 07:04:24;;;;;;;;;4.00;2.00;;;;;17.67;54.39;102180.44;5034294;28;67873;-86
2022/06/12 07:06:50;;;;;;;;;2.00;2.00;;;;;17.70;54.18;102180.31;5035604;28;45374;-85
2022/06/12 07:09:15;;;;;;;;;3.75;2.00;;;;;17.78;54.28;102179.13;5035938;28;45559;-85
2022/06/12 07:11:41;;;;;;;;;2.50;2.00;;;;;17.89;54.14;102178.78;5035243;28;46653;-88
2022/06/12 07:14:06;;;;;;;;;4.00;2.00;;;;;17.99;53.64;102190.66;5036523;28;62149;-88
2022/06/12 07:16:33;;;;;;;;;3.75;3.00;;;;;18.08;53.57;102196.53;5033084;28;45325;-90
2022/06/12 07:18:58;;;;;;;;;4.75;3.00;;;;;18.13;53.50;102189.31;5033198;28;45349;-84
2022/06/12 07:21:24;;;;;;;;;4.50;2.75;;;;;18.17;53.50;102190.91;5030329;28;46664;-86
2022/06/12 07:23:49;;;;;;;;;4.00;3.75;;;;;18.20;53.70;102180.25;5033744;28;45644;-87
2022/06/12 07:26:19;;;;;;;;;2.00;2.00;;;;;18.24;53.37;102187.13;5042410;28;45309;-85
2022/06/12 07:28:44;;;;;;;;;3.50;3.00;;;;;18.33;53.41;102192.06;5030979;28;45428;-84
2022/06/12 07:31:10;;;;;;;;;4.00;2.00;;;;;18.43;53.23;102194.34;5035718;28;52119;-84
2022/06/12 07:33:38;;;;;;;;;3.25;2.00;;;;;18.49;52.88;102183.53;5035958;28;63330;-85
2022/06/12 07:36:06;;;;;;;;;7.50;1.75;;;;;18.55;52.87;102186.81;5035458;28;45564;-86
2022/06/12 07:38:35;;;;;;;;;5.00;3.25;;;;;18.62;53.05;102182.13;5034116;28;45454;-87
2022/06/12 07:41:02;;;;;;;;;3.25;2.25;;;;;18.68;52.54;102189.78;5036265;28;45509;-87
2022/06/12 07:43:30;;;;;;;;;4.50;2.75;;;;;18.75;52.78;102190.41;5036247;28;45817;-87
2022/06/12 07:45:56;;;;;;;;;4.00;3.00;;;;;18.80;52.82;102190.25;5050710;28;45507;-87
2022/06/12 07:48:24;;;;;;;;;1.75;1.75;;;;;18.89;52.08;102187.25;5033646;28;45611;-87
2022/06/12 07:50:49;;;;;;;;;1.50;1.50;;;;;18.92;51.59;102185.34;5031022;28;46397;-86
2022/06/12 07:53:23;;;;;;;;;3.25;2.00;;;;;18.97;51.96;102194.88;5018119;28;45494;-89
2022/06/12 07:55:50;;;;;;;;;4.00;2.50;;;;;19.04;51.95;102191.06;5041851;28;45189;-86
2022/06/12 07:58:17;;;;;;;;;4.25;2.00;;;;;19.04;50.88;102189.25;5038458;28;45413;-83
2022/06/12 08:00:44;;;;;;;;;1.75;1.00;;;;;19.08;51.23;102190.84;5037152;28;47212;-83
2022/06/12 08:03:10;;;;;;;;;2.00;2.00;;;;;19.09;50.36;102187.31;5039632;28;45514;-83
2022/06/12 08:05:35;;;;;;;;;5.75;1.00;;;;;19.14;50.34;102184.44;5043711;28;45573;-81
2022/06/12 08:08:01;;;;;;;;;2.75;1.50;;;;;19.17;49.64;102184.34;5043977;28;49980;-83
2022/06/12 08:10:26;;;;;;;;;3.00;1.00;;;;;19.27;49.50;102190.06;5031491;28;46245;-82
2022/06/12 08:12:54;;;;;;;;;3.25;1.25;;;;;19.28;49.75;102192.66;5041527;28;45520;-82
2022/06/12 08:15:24;;;;;;;;;5.75;1.00;;;;;19.35;48.88;102193.22;5054417;28;45326;-81
2022/06/12 08:17:50;;;;;;;;;3.75;1.00;;;;;19.38;48.55;102186.97;5044009;28;45460;-82
2022/06/12 08:20:25;;;;;;;;;0.75;0.75;;;;;19.37;48.63;102190.53;5042263;28;45428;-79
2022/06/12 08:22:57;;;;;;;;;2.75;1.00;;;;;19.42;48.90;102181.47;5043712;28;45425;-83
2022/06/12 08:25:23;;;;;;;;;2.75;0.25;;;;;19.48;47.67;102178.59;5043334;28;45478;-83
2022/06/12 08:27:49;;;;;;;;;2.00;1.00;;;;;19.57;47.95;102185.25;5043992;28;45378;-80
2022/06/12 08:30:15;;;;;;;;;1.50;1.50;;;;;19.64;47.88;102172.63;5043493;28;45791;-81
2022/06/12 08:32:43;;;;;;;;;3.25;1.00;;;;;19.68;47.43;102167.13;5052701;28;45333;-86
2022/06/12 08:35:25;;;;;;;;;;;;;;;;;;;;;
2022/06/12 08:37:57;;;;;;;;;3.00;2.00;;;;;19.77;47.11;102167.69;5044193;28;68837;-87
2022/06/12 08:40:54;;;;;;;;;1.00;1.00;;;;;19.80;46.86;102168.41;5050631;28;47226;-87
2022/06/12 08:43:26;;;;;;;;;2.25;1.00;;;;;19.88;46.71;102162.78;5054266;28;45548;-86
2022/06/12 08:45:54;;;;;;;;;1.75;1.00;;;;;19.94;46.84;102169.56;5038950;28;45327;-86
2022/06/12 08:48:44;;;;;;;;;1.00;1.00;;;;;20.00;46.00;102162.22;5032750;28;45438;-86
2022/06/12 08:51:19;;;;;;;;;1.00;1.00;;;;;20.05;46.35;102146.16;5035287;28;45446;-86
2022/06/12 08:53:55;;;;;;;;;1.50;1.25;;;;;20.12;46.30;102150.22;5037816;28;45306;-86
2022/06/12 08:56:47;;;;;;;;;2.50;1.75;;;;;20.14;46.19;102163.38;5032930;28;45325;-87
2022/06/12 08:59:29;;;;;;;;;1.00;1.00;;;;;20.21;45.80;102159.53;5021456;28;45507;-87
2022/06/12 09:01:54;;;;;;;;;1.50;1.50;;;;;20.26;46.62;102153.09;5036310;28;47078;-86
2022/06/12 09:04:23;;;;;;;;;4.25;1.00;;;;;20.34;46.08;102146.53;5031865;28;45411;-87
2022/06/12 09:07:00;;;;;;;;;3.50;1.00;;;;;20.44;45.59;102147.84;5035366;28;45511;-86
2022/06/12 09:09:31;;;;;;;;;2.00;1.75;;;;;20.50;45.85;102151.06;5033503;28;45240;-87
2022/06/12 09:12:13;;;;;;;;;1.50;1.00;;;;;20.58;44.95;102150.66;5032530;28;45463;-86
2022/06/12 09:14:54;;;;;;;;;1.25;1.00;;;;;20.63;44.31;102155.75;5029494;28;45790;-86
2022/06/12 09:17:48;;;;;;;;;1.50;0.75;;;;;20.64;43.72;102157.50;5032647;28;45357;-86
2022/06/12 09:20:25;;;;;;;;;0.00;0.00;;;;;20.67;44.12;102142.31;5012474;28;45526;-86
2022/06/12 09:23:05;;;;;;;;;1.00;0.00;;;;;20.79;43.10;102146.13;4995884;28;46391;-87
2022/06/12 09:25:52;;;;;;;;;1.75;1.00;;;;;20.86;43.45;102152.84;4996494;28;45469;-87
2022/06/12 09:28:34;;;;;;;;;3.50;1.00;;;;;20.91;43.62;102146.47;4997317;28;45351;-86
2022/06/12 09:31:26;;;;;;;;;1.00;1.00;;;;;20.97;43.20;102138.19;5012819;28;45358;-86
2022/06/12 09:34:04;;;;;;;;;2.25;1.25;;;;;21.04;43.31;102143.13;5012091;28;45478;-87
2022/06/12 09:36:49;;;;;;;;;0.00;0.00;;;;;21.13;43.19;102144.44;4993122;28;45752;-86
2022/06/12 09:39:25;;;;;;;;;6.00;1.00;;;;;21.23;43.39;102143.03;5016278;28;45501;-86
2022/06/12 09:42:09;;;;;;;;;2.00;1.00;;;;;21.37;43.03;102142.31;4999459;28;46039;-86
2022/06/12 09:45:25;;;;;;;;;1.00;1.00;;;;;21.62;42.54;102147.22;4999099;28;45480;-87
2022/06/12 09:48:16;;;;;;;;;1.00;1.00;;;;;21.76;41.32;102142.97;5002988;28;45709;-86
2022/06/12 09:51:12;;;;;;;;;1.75;1.00;;;;;21.80;40.67;102142.72;5015647;28;45762;-86
2022/06/12 09:53:58;;;;;;;;;2.75;1.00;;;;;21.77;40.37;102147.34;4998980;28;45592;-86
2022/06/12 09:57:07;;;;;;;;;1.00;0.75;;;;;21.68;40.05;102146.03;5004436;28;48106;-86
2022/06/12 09:59:36;;;;;;;;;0.00;0.00;;;;;21.70;39.98;102153.91;5035998;28;45487;-86
2022/06/12 10:02:11;;;;;;;;;0.00;0.00;;;;;21.76;40.52;102149.09;5036150;28;45382;-87
2022/06/12 10:04:42;;;;;;;;;2.25;1.25;;;;;21.94;40.34;102141.09;5033459;28;45546;-86
2022/06/12 10:07:15;;;;;;;;;2.75;1.25;;;;;22.12;40.52;102153.34;5034616;28;45549;-87
2022/06/12 10:09:46;;;;;;;;;1.25;1.25;;;;;22.22;40.63;102145.72;5037014;28;45669;-87
2022/06/12 10:12:19;;;;;;;;;3.25;2.00;;;;;22.31;41.11;102150.56;5033119;28;45577;-86
2022/06/12 10:14:48;;;;;;;;;2.25;2.00;;;;;22.43;41.66;102151.66;5060640;28;45490;-87
2022/06/12 10:17:38;;;;;;;;;4.00;2.00;;;;;22.61;42.13;102142.63;5032173;28;46426;-87
2022/06/12 10:20:38;;;;;;;;;2.75;1.00;;;;;22.84;41.80;102139.59;5018043;28;45349;-87
2022/06/12 10:23:04;;;;;;;;;3.75;2.00;;;;;22.94;41.81;102140.78;5029368;28;45433;-86
2022/06/12 10:25:34;;;;;;;;;4.25;3.75;;;;;22.95;41.68;102143.31;5034861;28;45605;-87
2022/06/12 10:28:27;;;;;;;;;3.25;2.75;;;;;22.94;41.65;102146.94;5036176;28;46274;-86
2022/06/12 10:31:04;;;;;;;;;4.50;3.00;;;;;22.74;42.00;102132.16;5023045;28;45388;-87
2022/06/12 10:33:32;;;;;;;;;5.00;4.00;;;;;22.64;42.25;102131.00;5033234;28;45333;-87
2022/06/12 10:36:05;;;;;;;;;4.75;4.00;;;;;22.54;41.76;102135.13;5031433;28;45322;-87
2022/06/12 10:38:32;;;;;;;;;2.00;2.00;;;;;22.48;41.75;102131.03;5035337;28;46293;-87
2022/06/12 10:41:04;;;;;;;;;4.50;3.75;;;;;22.49;41.86;102124.78;5030167;28;46094;-87
2022/06/12 10:43:37;;;;;;;;;5.75;3.00;;;;;22.54;42.03;102113.91;5034453;28;45419;-87
2022/06/12 10:46:15;;;;;;;;;4.50;2.25;;;;;22.55;40.88;102116.47;5033426;28;45498;-87
2022/06/12 10:48:42;;;;;;;;;3.00;3.00;;;;;22.47;41.59;102109.88;5036094;28;47189;-87
2022/06/12 10:51:35;;;;;;;;;3.25;2.75;;;;;22.50;42.51;102105.25;5035553;28;45388;-87
2022/06/12 10:54:09;;;;;;;;;3.25;2.25;;;;;22.60;41.65;102103.78;5034157;28;45564;-85
2022/06/12 10:56:43;;;;;;;;;4.75;3.75;;;;;22.58;41.86;102094.19;5034782;28;45401;-80
2022/06/12 10:59:18;;;;;;;;;3.00;3.00;;;;;22.56;41.93;102094.28;5036084;28;45487;-82
2022/06/12 11:02:14;;;;;;;;;3.00;3.00;;;;;22.57;42.35;102097.81;5038758;28;45441;-83
2022/06/12 11:05:22;;;;;;;;;3.75;3.00;;;;;22.58;41.60;102088.88;5054863;28;45557;-84
2022/06/12 11:07:53;;;;;;;;;4.25;4.25;;;;;22.68;42.13;102092.72;5027396;28;45364;-83
2022/06/12 11:10:30;;;;;;;;;6.75;4.00;;;;;22.78;43.12;102095.69;5019507;28;46334;-84
2022/06/12 11:13:46;;;;;;;;;2.00;2.00;;;;;22.88;41.05;102091.56;5034479;28;45965;-83
2022/06/12 11:16:16;;;;;;;;;4.25;2.25;;;;;22.89;41.31;102077.31;4974518;28;45483;-84
2022/06/12 11:18:53;;;;;;;;;2.00;2.00;;;;;22.93;39.88;102073.53;4954938;28;45317;-82
2022/06/12 11:21:44;;;;;;;;;2.75;2.75;;;;;23.00;39.73;102074.88;4974677;28;46103;-85
2022/06/12 11:24:22;;;;;;;;;2.00;2.00;;;;;23.07;40.14;102070.09;4957905;28;45574;-86
2022/06/12 11:27:09;;;;;;;;;3.50;3.25;;;;;23.14;40.10;102066.13;4942126;28;45508;-82
2022/06/12 11:29:40;;;;;;;;;2.00;2.00;;;;;23.18;40.27;102064.13;4957219;28;45513;-84
2022/06/12 11:32:23;;;;;;;;;6.25;6.00;;;;;23.21;40.46;102061.25;4974483;28;45833;-83
2022/06/12 11:34:52;;;;;;;;;5.25;4.25;;;;;23.26;39.71;102055.69;4973963;28;45636;-86
2022/06/12 11:37:36;;;;;;;;;10.75;9.00;;;;;23.29;40.04;102056.34;4974526;28;45355;-87
2022/06/12 11:40:14;;;;;;;;;3.00;3.00;;;;;23.32;40.48;102050.81;4974289;28;45461;-84
2022/06/12 11:42:51;;;;;;;;;2.75;2.75;;;;;23.44;39.84;102051.00;4974575;28;46607;-85
2022/06/12 11:45:31;;;;;;;;;3.00;2.00;;;;;23.49;39.43;102039.13;4974628;28;45369;-86
2022/06/12 11:48:07;;;;;;;;;2.25;2.25;;;;;23.61;38.80;102028.72;5032981;28;45722;-89
2022/06/12 11:50:49;;;;;;;;;3.00;2.75;;;;;23.76;38.14;102033.03;5031842;28;45420;-86
2022/06/12 11:53:38;;;;;;;;;0.00;0.00;;;;;23.81;36.91;102024.78;5018961;28;47230;-84
2022/06/12 11:56:19;;;;;;;;;2.75;2.25;;;;;23.88;37.50;102028.75;5032016;28;45408;-83
2022/06/12 11:58:53;;;;;;;;;2.50;1.50;;;;;23.98;37.38;102024.56;5046018;28;45678;-85
2022/06/12 12:01:40;;;;;;;;;2.25;2.25;;;;;24.09;37.45;102029.13;5033211;28;45290;-80